Time;durP1;ratioP1;P1;durP2;ratioP2;P2;SDS_P1;SDS_P2;PMS_P1;PMS_P2;Temp;Humidity;BMP_temperature;BMP_pressure;BME280_temperature;BME280_humidity;BME280_pressure;Samples;Min_cycle;Max_cycle;Signal;HPM_P1;HPM_P2
2023/10/02 00:02:05;;;;;;;8.35;4.47;;;;;;;10.20;90.08;98982.59;4860462;29;20052;-73
2023/10/02 00:04:34;;;;;;;8.38;4.40;;;;;;;10.18;90.72;98989.84;4861831;29;20058;-69
2023/10/02 00:07:05;;;;;;;10.43;4.28;;;;;;;10.15;91.12;98996.28;4859444;29;20056;-67
2023/10/02 00:09:49;;;;;;;9.65;4.13;;;;;;;10.19;91.09;98995.06;4859652;29;20381;-67
2023/10/02 00:12:19;;;;;;;9.88;4.25;;;;;;;10.12;91.28;98995.66;4861141;29;20040;-66
2023/10/02 00:14:46;;;;;;;10.90;4.80;;;;;;;10.10;90.88;98990.44;4844102;29;20052;-67
2023/10/02 00:17:18;;;;;;;10.50;5.38;;;;;;;10.10;91.22;98998.44;4858482;29;20048;-66
2023/10/02 00:19:49;;;;;;;8.70;4.50;;;;;;;10.08;90.98;98995.03;4843840;29;20052;-66
2023/10/02 00:25:03;;;;;;;8.50;4.80;;;;;;;10.00;91.12;99002.81;4858301;29;20124;-70
2023/10/02 00:27:35;;;;;;;6.25;4.07;;;;;;;9.99;91.88;98997.59;4843829;29;20064;-69
2023/10/02 00:30:02;;;;;;;8.77;4.38;;;;;;;9.94;91.85;98994.44;4860742;29;20051;-68
2023/10/02 00:32:34;;;;;;;8.52;4.25;;;;;;;9.95;92.37;98993.47;4860724;29;20508;-67
2023/10/02 00:35:03;;;;;;;11.32;5.57;;;;;;;9.96;93.05;98995.16;4859685;29;20520;-65
2023/10/02 00:37:47;;;;;;;8.55;4.72;;;;;;;9.96;93.34;99032.44;4843929;29;20083;-70
2023/10/02 00:40:26;;;;;;;9.55;5.10;;;;;;;10.03;93.45;99007.91;4860436;29;20068;-68
2023/10/02 00:42:55;;;;;;;9.80;4.70;;;;;;;10.01;92.99;99009.81;4857276;29;20055;-71
2023/10/02 00:45:30;;;;;;;7.03;4.50;;;;;;;10.00;93.24;99017.94;4859885;29;20041;-68
2023/10/02 00:48:45;;;;;;;8.35;4.57;;;;;;;10.00;93.70;99004.63;4843771;29;20079;-70
2023/10/02 00:50:54;;;;;;;8.02;4.45;;;;;;;10.00;93.65;98997.47;4838495;29;20055;-70
2023/10/02 00:53:38;;;;;;;14.73;4.65;;;;;;;10.00;94.00;99001.97;4846993;29;20048;-68
2023/10/02 00:56:19;;;;;;;8.93;4.38;;;;;;;10.00;94.10;99008.13;4864225;29;20045;-70
2023/10/02 00:58:58;;;;;;;7.75;4.63;;;;;;;10.01;94.22;99009.81;4847498;29;20063;-68
2023/10/02 01:01:34;;;;;;;9.40;4.75;;;;;;;10.02;94.46;99006.19;4831193;29;20060;-68
2023/10/02 01:04:24;;;;;;;10.73;4.70;;;;;;;9.99;94.06;99021.56;4864598;29;20048;-71
2023/10/02 01:07:11;;;;;;;12.48;4.75;;;;;;;9.99;94.08;99000.25;4845792;29;20048;-74
2023/10/02 01:09:39;;;;;;;11.98;4.82;;;;;;;9.98;94.99;99009.22;4846251;29;20052;-70
2023/10/02 01:12:10;;;;;;;16.40;5.03;;;;;;;9.97;95.34;99003.03;4845347;29;20045;-68
2023/10/02 01:14:52;;;;;;;15.05;5.03;;;;;;;9.94;95.05;99019.25;4851417;29;20048;-70
2023/10/02 01:17:20;;;;;;;12.18;5.55;;;;;;;9.90;95.70;98999.19;4847946;29;20522;-70
2023/10/02 01:19:53;;;;;;;12.15;4.97;;;;;;;9.86;95.72;99031.47;4864173;29;20060;-72
2023/10/02 01:22:28;;;;;;;8.82;4.78;;;;;;;9.82;95.61;99005.09;4860661;29;20048;-72
2023/10/02 01:25:13;;;;;;;8.10;5.25;;;;;;;9.77;96.06;99004.63;4873417;29;20064;-70
2023/10/02 01:27:47;;;;;;;9.88;5.28;;;;;;;9.73;96.39;99010.28;4862929;29;20040;-70
2023/10/02 01:30:17;;;;;;;10.95;5.00;;;;;;;9.67;96.46;99006.31;4863034;29;20055;-70
2023/10/02 01:33:06;;;;;;;9.95;5.15;;;;;;;9.72;97.25;99013.91;4863393;29;20055;-70
2023/10/02 01:35:39;;;;;;;10.20;5.63;;;;;;;9.78;97.88;99008.13;4862970;29;20033;-71
2023/10/02 01:38:14;;;;;;;15.27;6.03;;;;;;;9.87;97.82;99044.69;4846510;29;20052;-73
2023/10/02 01:40:54;;;;;;;13.40;4.40;;;;;;;9.94;98.63;99019.25;4863323;29;20044;-72
2023/10/02 01:43:26;;;;;;;9.65;5.35;;;;;;;10.04;97.71;99022.06;4864109;29;20495;-73
2023/10/02 01:45:56;;;;;;;10.15;4.65;;;;;;;10.14;97.62;99026.53;4844462;29;20040;-71
2023/10/02 01:48:36;;;;;;;14.20;5.55;;;;;;;10.20;96.09;99030.53;4864928;29;20060;-71
2023/10/02 01:51:20;;;;;;;14.13;5.78;;;;;;;10.31;95.88;99024.34;4881940;29;20040;-74
2023/10/02 01:53:54;;;;;;;9.02;5.10;;;;;;;10.34;94.54;99024.97;4873016;29;20032;-73
2023/10/02 01:56:20;;;;;;;12.77;5.68;;;;;;;10.37;94.50;99022.06;4862210;29;20512;-72
2023/10/02 01:58:50;;;;;;;10.98;6.35;;;;;;;10.44;93.69;99027.72;4841562;29;20072;-73
2023/10/02 02:01:22;;;;;;;14.15;5.55;;;;;;;10.48;93.39;99030.03;4831856;29;20045;-73
2023/10/02 02:03:50;;;;;;;10.07;5.43;;;;;;;10.51;93.03;99026.25;4861968;29;20040;-75
2023/10/02 02:06:21;;;;;;;12.90;5.75;;;;;;;10.55;92.94;99035.72;4835253;29;20049;-74
2023/10/02 02:09:09;;;;;;;13.27;6.38;;;;;;;10.52;92.51;99025.28;4846164;29;20056;-72
2023/10/02 02:11:44;;;;;;;10.60;6.47;;;;;;;10.55;91.54;99030.38;4845017;29;20044;-71
2023/10/02 02:14:10;;;;;;;10.70;5.13;;;;;;;10.55;91.87;99019.72;4846979;29;20049;-73
2023/10/02 02:16:35;;;;;;;9.98;5.50;;;;;;;10.53;91.74;99048.31;4866682;29;20052;-72
2023/10/02 02:19:05;;;;;;;11.75;6.65;;;;;;;10.54;91.55;99024.19;4862912;29;20057;-69
2023/10/02 02:21:34;;;;;;;9.68;5.43;;;;;;;10.59;91.98;99028.31;4849836;29;20060;-71
2023/10/02 02:24:11;;;;;;;11.52;5.97;;;;;;;10.61;91.42;99045.03;4849758;29;20056;-72
2023/10/02 02:26:39;;;;;;;9.18;5.60;;;;;;;10.64;91.49;99045.63;4823898;29;20072;-74
2023/10/02 02:29:23;;;;;;;12.85;5.63;;;;;;;10.66;90.99;99045.50;4810051;29;20068;-73
2023/10/02 02:32:03;;;;;;;10.68;5.20;;;;;;;10.71;91.10;99035.31;4822889;29;20062;-72
2023/10/02 02:34:32;;;;;;;10.93;5.55;;;;;;;10.71;90.82;99041.50;4823569;29;20041;-71
2023/10/02 02:37:00;;;;;;;12.43;5.80;;;;;;;10.74;90.12;99041.22;4823908;29;20053;-72
2023/10/02 02:39:28;;;;;;;12.75;5.07;;;;;;;10.78;90.57;99036.50;4822904;29;20506;-72
2023/10/02 02:44:46;;;;;;;8.30;4.13;;;;;;;10.81;89.65;99063.78;4831265;29;20235;-72
2023/10/02 02:47:21;;;;;;;9.70;4.68;;;;;;;10.87;89.64;99049.06;4831253;29;20049;-75
2023/10/02 02:50:07;;;;;;;13.18;4.57;;;;;;;10.86;89.77;99050.03;4826841;29;20503;-76
2023/10/02 02:52:32;;;;;;;8.60;4.82;;;;;;;10.87;89.40;99047.25;4827275;29;20061;-74
2023/10/02 02:55:05;;;;;;;8.52;4.30;;;;;;;10.87;88.93;99073.94;4790720;29;20057;-75
2023/10/02 02:57:34;;;;;;;11.05;4.88;;;;;;;10.86;88.56;99048.22;4796986;29;20433;-73
2023/10/02 03:02:52;;;;;;;9.25;4.20;;;;;;;10.78;87.86;99053.34;4812747;29;20053;-71
2023/10/02 03:05:37;;;;;;;17.98;5.05;;;;;;;10.80;88.26;99040.75;4821689;29;20049;-72
2023/10/02 03:08:08;;;;;;;6.80;4.35;;;;;;;10.82;88.55;99048.63;4814381;29;20053;-79
2023/10/02 03:10:39;;;;;;;8.23;4.82;;;;;;;10.79;88.04;99048.88;4815813;29;20057;-72
2023/10/02 03:13:08;;;;;;;6.80;4.28;;;;;;;10.76;88.51;99055.28;4822137;29;20092;-71
2023/10/02 03:15:46;;;;;;;8.10;4.18;;;;;;;10.78;88.19;99048.00;4824944;29;20057;-71
2023/10/02 03:18:33;;;;;;;7.95;4.68;;;;;;;10.80;88.55;99007.91;4822715;29;20045;-70
2023/10/02 03:21:25;;;;;;;6.97;4.50;;;;;;;10.78;88.62;99049.84;4822787;29;20061;-71
2023/10/02 03:23:59;;;;;;;7.97;4.15;;;;;;;10.73;88.02;99060.00;4806712;29;20065;-73
2023/10/02 03:29:21;;;;;;;6.43;5.03;;;;;;;10.81;88.84;99038.94;4850872;29;20048;-71
2023/10/02 03:31:57;;;;;;;7.57;4.75;;;;;;;10.72;88.03;99042.34;4857672;29;20397;-74
2023/10/02 03:34:29;;;;;;;7.75;3.95;;;;;;;10.72;87.92;99063.69;4842484;29;20052;-76
2023/10/02 03:37:35;;;;;;;10.30;4.87;;;;;;;10.76;87.93;99017.97;4861406;29;20518;-74
2023/10/02 03:39:59;;;;;;;8.77;5.22;;;;;;;10.74;88.67;99035.91;4832089;29;20057;-74
2023/10/02 03:42:36;;;;;;;6.78;4.57;;;;;;;10.75;88.34;99047.41;4859546;29;20534;-74
2023/10/02 03:45:05;;;;;;;6.97;4.63;;;;;;;10.71;87.88;99046.84;4861805;29;20134;-76
2023/10/02 03:47:37;;;;;;;10.35;4.68;;;;;;;10.71;88.16;99045.97;4861084;29;20092;-76
2023/10/02 03:50:11;;;;;;;9.43;4.65;;;;;;;10.67;88.54;99040.03;4876400;29;20074;-76
2023/10/02 03:52:41;;;;;;;9.77;5.03;;;;;;;10.66;88.34;99048.16;4881192;29;20047;-75
2023/10/02 03:55:18;;;;;;;6.05;4.03;;;;;;;10.67;88.39;99044.53;4847612;29;20044;-75
2023/10/02 03:57:55;;;;;;;8.95;4.38;;;;;;;10.65;88.28;99062.47;4863231;29;20059;-76
2023/10/02 04:00:27;;;;;;;7.82;4.15;;;;;;;10.65;88.42;99046.47;4847794;29;20052;-75
2023/10/02 04:02:54;;;;;;;4.75;4.13;;;;;;;10.69;88.90;99059.44;4863650;29;20503;-75
2023/10/02 04:08:28;;;;;;;8.55;4.47;;;;;;;10.73;88.56;99058.19;4770340;29;20062;-75
2023/10/02 04:11:02;;;;;;;9.27;4.40;;;;;;;10.78;88.45;99058.69;4786146;29;20094;-76
2023/10/02 04:13:33;;;;;;;6.70;4.68;;;;;;;10.83;88.32;99066.31;4785836;29;20062;-75
2023/10/02 04:16:28;;;;;;;7.75;4.45;;;;;;;10.83;88.15;99068.97;4786138;29;20038;-74
2023/10/02 04:19:02;;;;;;;9.68;4.72;;;;;;;10.83;88.26;99072.50;4770643;29;20058;-75
2023/10/02 04:21:33;;;;;;;7.57;4.55;;;;;;;10.83;88.25;99076.97;4785913;29;20526;-74
2023/10/02 04:23:58;;;;;;;6.50;4.80;;;;;;;10.80;88.49;99082.56;4771892;29;20065;-75
2023/10/02 04:26:33;;;;;;;7.32;4.32;;;;;;;10.82;88.46;99080.63;4789339;29;20061;-75
2023/10/02 04:32:11;;;;;;;6.85;4.65;;;;;;;10.86;88.41;99087.38;4774011;29;20054;-75
2023/10/02 04:34:36;;;;;;;4.97;3.58;;;;;;;10.88;88.57;99101.44;4789028;29;20058;-74
2023/10/02 04:37:19;;;;;;;5.38;4.03;;;;;;;10.90;88.77;99043.50;4773884;29;20066;-74
2023/10/02 04:39:52;;;;;;;6.38;3.88;;;;;;;10.91;88.26;99101.19;4789076;29;20400;-74
2023/10/02 04:42:25;;;;;;;8.60;3.88;;;;;;;10.93;88.28;99083.25;4789029;29;20099;-75
2023/10/02 04:45:20;;;;;;;4.65;3.08;;;;;;;10.90;87.95;99083.50;4810240;29;20642;-76
2023/10/02 04:47:45;;;;;;;8.43;3.70;;;;;;;10.95;88.06;99086.63;4843861;29;20135;-73
2023/10/02 04:55:42;;;;;;;9.00;4.30;;;;;;;11.04;87.69;99095.72;4824866;29;20061;-74
2023/10/02 04:58:19;;;;;;;7.05;3.25;;;;;;;11.06;87.98;99096.44;4809638;29;20049;-71
2023/10/02 05:04:02;;;;;;;6.70;4.35;;;;;;;11.07;86.99;99112.28;4824776;29;20056;-73
2023/10/02 05:06:52;;;;;;;;;;;;;;;11.26;87.72;99107.16;4825263;29;20501;-73
2023/10/02 05:09:25;;;;;;;8.30;3.75;;;;;;;11.15;86.44;99109.00;4793586;29;20403;-72
2023/10/02 05:11:56;;;;;;;7.13;3.63;;;;;;;11.17;87.08;99110.56;4809497;29;20049;-73
2023/10/02 05:14:29;;;;;;;6.32;3.72;;;;;;;11.18;87.30;99103.41;4809107;29;20073;-72
2023/10/02 05:17:38;;;;;;;8.73;4.60;;;;;;;11.22;86.93;99116.38;4824681;29;20053;-72
2023/10/02 05:20:07;;;;;;;7.93;3.38;;;;;;;11.27;87.26;99118.69;4808931;29;20057;-72
2023/10/02 05:22:36;;;;;;;5.30;3.33;;;;;;;11.27;86.68;99130.19;4824546;29;20206;-73
2023/10/02 05:25:08;;;;;;;6.88;4.00;;;;;;;11.29;86.38;99191.41;4824751;29;20076;-72
2023/10/02 05:27:38;;;;;;;13.30;4.10;;;;;;;11.32;85.81;99147.63;4824425;29;20067;-71
2023/10/02 05:30:15;;;;;;;8.77;4.20;;;;;;;11.39;86.34;99116.81;4848658;29;20057;-73
2023/10/02 05:32:48;;;;;;;14.07;4.53;;;;;;;11.39;86.04;99127.50;4862694;29;20059;-72
2023/10/02 05:35:45;;;;;;;6.88;4.10;;;;;;;11.49;86.02;99120.41;4863231;29;20041;-72
2023/10/02 05:38:16;;;;;;;9.95;4.93;;;;;;;11.41;85.16;99114.84;4863904;29;20060;-72
2023/10/02 05:40:52;;;;;;;6.97;5.15;;;;;;;11.39;84.90;99116.81;4865748;29;20061;-72
2023/10/02 05:43:21;;;;;;;7.75;4.70;;;;;;;11.33;84.96;99138.66;4846557;29;20409;-74
2023/10/02 05:45:50;;;;;;;8.52;5.22;;;;;;;11.31;85.64;99093.41;4846714;29;20055;-75
2023/10/02 05:48:38;;;;;;;7.55;4.63;;;;;;;11.32;85.85;99121.78;4862659;29;20049;-73
2023/10/02 05:51:11;;;;;;;7.18;4.40;;;;;;;11.38;86.36;99123.97;4862407;29;20493;-74
2023/10/02 05:53:53;;;;;;;6.45;4.10;;;;;;;11.42;86.13;99127.22;4863345;29;20404;-75
2023/10/02 05:56:21;;;;;;;8.02;4.32;;;;;;;11.45;85.87;99129.63;4863512;29;20412;-75
2023/10/02 05:58:55;;;;;;;6.50;3.97;;;;;;;11.51;85.81;99139.81;4847203;29;20060;-75
2023/10/02 06:01:34;;;;;;;5.85;3.83;;;;;;;11.54;85.87;99143.06;4862185;29;20515;-76
2023/10/02 06:04:04;;;;;;;5.72;3.67;;;;;;;11.59;85.53;99154.22;4862266;29;20048;-76
2023/10/02 06:06:37;;;;;;;6.72;3.70;;;;;;;11.62;85.32;99139.78;4846541;29;20424;-76
2023/10/02 06:09:19;;;;;;;8.68;4.13;;;;;;;11.67;84.96;99136.69;4846604;29;20068;-72
2023/10/02 06:12:02;;;;;;;7.22;4.13;;;;;;;11.70;84.48;99145.31;4862966;29;20049;-74
2023/10/02 06:14:38;;;;;;;5.38;3.40;;;;;;;11.75;83.73;99144.91;4863380;29;20473;-74
2023/10/02 06:17:14;;;;;;;4.63;3.40;;;;;;;11.82;83.86;99168.34;4862032;29;20044;-73
2023/10/02 06:19:43;;;;;;;7.15;3.28;;;;;;;11.76;83.27;99149.31;4846620;29;20056;-73
2023/10/02 06:22:14;;;;;;;6.05;3.80;;;;;;;11.78;83.09;99155.38;4845848;29;20539;-71
2023/10/02 06:24:43;;;;;;;5.53;3.75;;;;;;;11.80;83.47;99148.06;4862005;29;20515;-71
2023/10/02 06:27:17;;;;;;;6.35;4.10;;;;;;;11.79;83.46;99114.34;4863249;29;20087;-72
2023/10/02 06:29:50;;;;;;;5.20;3.20;;;;;;;11.81;83.13;99172.00;4845993;29;20512;-72
2023/10/02 06:32:19;;;;;;;4.07;3.60;;;;;;;11.83;82.97;99161.19;4845845;29;20049;-73
2023/10/02 06:34:56;;;;;;;7.55;4.38;;;;;;;11.83;82.51;99163.84;4862949;29;20068;-73
2023/10/02 06:37:35;;;;;;;8.43;3.95;;;;;;;11.79;82.62;99119.69;4863135;29;20522;-74
2023/10/02 06:43:28;;;;;;;;;;;;;;;;;;;;;
2023/10/02 06:46:06;;;;;;;;;;;;;;;12.10;82.96;99161.50;4842822;29;20055;-76
2023/10/02 06:48:48;;;;;;;7.43;3.47;;;;;;;12.00;82.34;99172.13;4825813;29;19951;-74
2023/10/02 06:51:27;;;;;;;5.10;3.63;;;;;;;12.03;82.20;99196.88;4826309;29;20056;-75
2023/10/02 06:54:07;;;;;;;5.45;4.05;;;;;;;12.12;81.58;99174.72;4842459;29;20072;-74
2023/10/02 06:56:42;;;;;;;7.22;3.60;;;;;;;12.14;80.84;99172.78;4826508;29;20092;-74
2023/10/02 06:59:17;;;;;;;13.73;3.75;;;;;;;12.19;80.38;99191.94;4841924;29;20049;-76
2023/10/02 07:02:04;;;;;;;6.72;3.53;;;;;;;12.22;80.43;99180.97;4842076;29;20060;-75
2023/10/02 07:04:41;;;;;;;6.50;3.35;;;;;;;12.25;80.34;99181.56;4810780;29;20549;-76
2023/10/02 07:07:12;;;;;;;5.95;3.67;;;;;;;12.30;80.20;99181.19;4841881;29;20133;-75
2023/10/02 07:09:48;;;;;;;5.93;3.22;;;;;;;12.35;80.03;99182.47;4826045;29;20067;-75
2023/10/02 07:12:20;;;;;;;6.80;3.38;;;;;;;12.37;79.46;99179.66;4826235;29;20056;-75
2023/10/02 07:15:10;;;;;;;9.05;3.88;;;;;;;12.42;78.74;99187.28;4826234;29;20109;-76
2023/10/02 07:17:47;;;;;;;5.75;2.97;;;;;;;12.39;78.42;99208.94;4826515;29;20401;-76
2023/10/02 07:20:20;;;;;;;4.93;2.67;;;;;;;12.37;77.85;99198.38;4855595;29;20060;-77
2023/10/02 07:23:13;;;;;;;8.38;4.00;;;;;;;12.47;78.26;99201.09;4845827;29;20056;-75
2023/10/02 07:26:00;;;;;;;4.88;3.58;;;;;;;12.32;78.34;99204.13;4845726;29;20051;-76
2023/10/02 07:28:50;;;;;;;10.60;4.07;;;;;;;12.27;78.22;99200.16;4845128;29;20079;-75
2023/10/02 07:31:31;;;;;;;5.70;4.38;;;;;;;12.18;78.34;99196.44;4861322;29;20040;-75
2023/10/02 07:34:25;;;;;;;6.00;2.97;;;;;;;12.13;78.52;99214.69;4849814;29;20028;-78
2023/10/02 07:36:59;;;;;;;4.15;3.00;;;;;;;12.07;79.25;99222.38;4870654;29;20051;-75
2023/10/02 07:39:38;;;;;;;6.10;3.33;;;;;;;12.14;79.61;99221.72;4868790;29;20060;-76
2023/10/02 07:42:10;;;;;;;4.88;2.80;;;;;;;12.13;79.83;99219.19;4867406;29;20049;-75
2023/10/02 07:44:46;;;;;;;5.70;3.45;;;;;;;12.11;80.27;99227.31;4866033;29;20052;-77
2023/10/02 07:47:23;;;;;;;3.97;2.63;;;;;;;12.17;80.14;99239.34;4878268;29;20056;-75
2023/10/02 07:50:23;;;;;;;4.38;2.13;;;;;;;12.20;79.88;99231.03;4877999;29;20433;-75
2023/10/02 07:53:06;;;;;;;6.85;2.70;;;;;;;12.24;79.47;99241.34;4861930;29;20484;-75
2023/10/02 07:56:06;;;;;;;5.05;2.85;;;;;;;12.25;79.72;99234.19;4877923;29;20052;-76
2023/10/02 07:58:54;;;;;;;3.75;2.85;;;;;;;12.27;79.57;99242.91;4862810;29;20530;-76
2023/10/02 08:01:27;;;;;;;3.95;2.83;;;;;;;12.16;79.90;99233.13;4878736;29;20063;-77
2023/10/02 08:03:55;;;;;;;3.28;2.95;;;;;;;12.08;79.92;99238.25;4878468;29;20048;-76
2023/10/02 08:06:36;;;;;;;4.63;3.17;;;;;;;11.99;79.72;99239.88;4878841;29;20047;-76
2023/10/02 08:12:04;;;;;;;4.53;2.92;;;;;;;11.98;80.93;99243.53;4870804;29;20060;-74
2023/10/02 08:14:50;;;;;;;2.97;2.55;;;;;;;12.10;80.99;99244.31;4861225;29;20056;-75
2023/10/02 08:20:34;;;;;;;;;;;;;;;;;;;;;
2023/10/02 08:23:26;;;;;;;2.55;2.35;;;;;;;12.79;78.02;99249.97;4841456;29;20060;-76
2023/10/02 08:26:05;;;;;;;5.97;2.38;;;;;;;12.95;76.93;99257.53;4841818;29;20044;-77
2023/10/02 08:28:48;;;;;;;3.10;1.85;;;;;;;13.19;75.60;99257.25;4826537;29;20165;-76
2023/10/02 08:31:52;;;;;;;3.70;1.83;;;;;;;13.61;74.62;99236.47;4841418;29;20053;-75
2023/10/02 08:34:24;;;;;;;2.92;2.03;;;;;;;13.79;73.07;99229.44;4841760;29;20061;-75
2023/10/02 08:37:04;;;;;;;2.15;1.70;;;;;;;13.91;70.66;99236.34;4825837;29;20052;-74
2023/10/02 08:39:40;;;;;;;3.17;2.30;;;;;;;13.95;69.60;99235.09;4826492;29;20057;-77
2023/10/02 08:42:11;;;;;;;3.75;2.10;;;;;;;13.98;69.91;99245.56;4841571;29;20048;-76
2023/10/02 08:44:38;;;;;;;3.30;1.70;;;;;;;13.97;69.83;99240.31;4826572;29;20056;-77
2023/10/02 08:47:25;;;;;;;3.10;2.05;;;;;;;14.04;68.94;99260.22;4828441;29;20052;-77
2023/10/02 08:50:10;;;;;;;1.63;1.50;;;;;;;13.89;68.95;99241.00;4844021;29;20064;-78
2023/10/02 08:52:38;;;;;;;1.77;1.67;;;;;;;13.85;69.33;99247.66;4844663;29;20057;-77
2023/10/02 08:55:35;;;;;;;5.82;2.08;;;;;;;13.98;69.43;99247.38;4860677;29;20412;-75
2023/10/02 08:58:16;;;;;;;2.72;1.98;;;;;;;13.86;69.50;99248.50;4861718;29;20061;-76
2023/10/02 09:03:48;;;;;;;5.32;2.15;;;;;;;13.93;69.85;99246.94;4843822;29;20424;-74
2023/10/02 09:06:31;;;;;;;8.32;3.38;;;;;;;13.82;69.77;99266.69;4859320;29;20527;-74
2023/10/02 09:09:16;;;;;;;5.75;2.35;;;;;;;13.81;69.28;99248.91;4843648;29;20056;-74
2023/10/02 09:11:44;;;;;;;6.90;3.20;;;;;;;13.82;69.84;99304.19;4862969;29;20079;-74
2023/10/02 09:14:21;;;;;;;3.85;2.40;;;;;;;13.77;69.87;99263.56;4864057;29;20056;-74
2023/10/02 09:17:07;;;;;;;4.38;2.88;;;;;;;13.72;70.27;99255.97;4862824;29;20365;-74
2023/10/02 09:19:39;;;;;;;6.53;2.78;;;;;;;13.68;70.78;99259.88;4862561;29;20071;-74
2023/10/02 09:22:12;;;;;;;5.68;2.78;;;;;;;13.66;71.46;99282.44;4863781;29;20508;-74
2023/10/02 09:24:38;;;;;;;3.58;2.35;;;;;;;13.73;71.49;99273.72;4855925;29;20056;-74
2023/10/02 09:27:24;;;;;;;3.42;2.42;;;;;;;13.81;71.48;99267.66;4887807;29;20044;-74
2023/10/02 09:30:36;;;;;;;3.22;2.10;;;;;;;13.88;71.19;99266.13;4854217;29;20056;-75
2023/10/02 09:32:47;;;;;;;3.75;2.70;;;;;;;13.95;70.87;99258.38;4859731;29;20063;-76
2023/10/02 09:35:29;;;;;;;3.17;2.05;;;;;;;14.23;70.83;99248.63;4866064;29;20049;-78
2023/10/02 09:38:03;;;;;;;4.55;2.88;;;;;;;14.75;70.47;99250.84;4830951;29;20052;-75
2023/10/02 09:40:53;;;;;;;3.65;2.40;;;;;;;15.61;68.94;99248.78;4847146;29;20393;-76
2023/10/02 09:43:19;;;;;;;3.80;1.95;;;;;;;16.41;65.58;99255.06;4863811;29;20429;-76
2023/10/02 09:45:47;;;;;;;2.67;2.42;;;;;;;17.01;62.42;99246.13;4862730;29;20043;-76
2023/10/02 09:51:07;;;;;;;2.78;2.08;;;;;;;17.36;58.31;99246.94;4863779;29;20052;-74
2023/10/02 09:53:38;;;;;;;3.78;2.40;;;;;;;17.11;58.90;99235.22;4846078;29;20056;-74
2023/10/02 09:56:17;;;;;;;3.90;2.20;;;;;;;16.79;58.93;99284.34;4862278;29;20056;-74
2023/10/02 09:58:55;;;;;;;2.85;2.05;;;;;;;16.52;60.14;99260.22;4861088;29;20044;-75
2023/10/02 10:03:55;;;;;;;4.15;2.35;;;;;;;16.40;60.56;99254.22;4846054;29;20056;-77
2023/10/02 10:06:27;;;;;;;3.13;2.22;;;;;;;16.44;60.76;99252.94;4846389;29;20060;-76
2023/10/02 10:11:43;;;;;;;1.63;1.52;;;;;;;16.40;60.25;99264.16;4862741;29;20047;-74
2023/10/02 10:14:35;;;;;;;4.40;2.60;;;;;;;16.39;60.57;99259.78;4863230;29;20416;-74
2023/10/02 10:17:17;;;;;;;5.75;3.55;;;;;;;16.06;61.04;99264.00;4853288;29;20040;-75
2023/10/02 10:20:07;;;;;;;4.95;2.50;;;;;;;15.98;61.46;99273.72;4850239;29;20048;-74
2023/10/02 10:22:35;;;;;;;3.70;1.95;;;;;;;15.79;61.62;99262.25;4845446;29;20052;-75
2023/10/02 10:27:42;;;;;;;3.38;1.85;;;;;;;15.98;62.35;99256.72;4862413;29;20037;-76
2023/10/02 10:30:28;;;;;;;3.13;1.73;;;;;;;16.25;61.99;99259.31;4861053;29;20052;-76
2023/10/02 10:33:15;;;;;;;5.10;2.05;;;;;;;16.64;61.29;99262.53;4861514;29;20831;-74
2023/10/02 10:35:51;;;;;;;3.58;2.63;;;;;;;16.92;59.81;99255.16;4833901;29;20052;-74
2023/10/02 10:41:05;;;;;;;3.63;2.13;;;;;;;17.20;57.88;99254.94;4845997;29;20531;-74
2023/10/02 10:43:44;;;;;;;2.55;1.95;;;;;;;17.15;57.48;99271.63;4845100;29;20528;-74
2023/10/02 10:46:19;;;;;;;2.38;1.67;;;;;;;17.21;57.74;99251.25;4845341;29;20052;-74
2023/10/02 10:48:48;;;;;;;2.33;1.77;;;;;;;17.00;57.38;99260.56;4861111;29;20044;-74
2023/10/02 10:51:27;;;;;;;3.95;1.77;;;;;;;16.79;57.64;99252.03;4856856;29;20055;-75
2023/10/02 10:54:00;;;;;;;1.88;1.73;;;;;;;16.59;58.05;99262.09;4863700;29;20044;-75
2023/10/02 10:56:27;;;;;;;3.05;1.83;;;;;;;16.42;58.44;99257.63;4861055;29;20056;-75
2023/10/02 10:59:10;;;;;;;3.30;2.22;;;;;;;16.22;58.97;99258.81;4862828;29;20166;-75
2023/10/02 11:01:37;;;;;;;6.87;2.53;;;;;;;16.09;60.09;99248.44;4845533;29;20072;-77
2023/10/02 11:04:03;;;;;;;4.38;2.50;;;;;;;15.94;60.22;99264.25;4835406;29;20044;-80
2023/10/02 11:06:29;;;;;;;3.58;1.90;;;;;;;15.83;60.81;99279.75;4862965;29;20044;-78
2023/10/02 11:09:18;;;;;;;5.13;2.40;;;;;;;15.83;61.49;99263.63;4862327;29;20055;-78
2023/10/02 11:11:49;;;;;;;5.43;2.38;;;;;;;15.60;61.45;99247.94;4847843;29;20055;-78
2023/10/02 11:14:20;;;;;;;3.25;2.00;;;;;;;15.56;61.72;99262.69;4855546;29;20048;-78
2023/10/02 11:16:54;;;;;;;2.55;2.17;;;;;;;15.59;62.26;99278.47;4883423;29;20051;-77
2023/10/02 11:22:15;;;;;;;4.10;2.63;;;;;;;15.85;62.11;99257.09;4861609;29;20063;-72
2023/10/02 11:24:44;;;;;;;4.10;2.33;;;;;;;16.01;61.94;99260.97;4860137;29;20043;-74
2023/10/02 11:27:14;;;;;;;5.45;2.83;;;;;;;16.10;60.82;99265.41;4860967;29;20044;-74
2023/10/02 11:29:42;;;;;;;5.68;2.60;;;;;;;16.18;59.93;99258.25;4844473;29;20053;-74
2023/10/02 11:32:20;;;;;;;3.22;2.80;;;;;;;16.27;59.97;99260.00;4860720;29;20071;-70
2023/10/02 11:34:59;;;;;;;8.25;3.03;;;;;;;16.31;59.94;99258.72;4860786;29;20498;-71
2023/10/02 11:37:28;;;;;;;5.18;2.75;;;;;;;16.28;59.66;99266.22;4861066;29;20032;-73
2023/10/02 11:39:55;;;;;;;4.28;2.55;;;;;;;16.29;59.80;99263.41;4860970;29;20052;-70
2023/10/02 11:42:20;;;;;;;5.18;2.92;;;;;;;16.28;60.06;99264.38;4860888;29;20045;-71
2023/10/02 11:44:46;;;;;;;5.07;3.15;;;;;;;16.27;59.74;99283.38;4859971;29;20047;-70
2023/10/02 11:47:12;;;;;;;5.78;3.53;;;;;;;16.22;59.83;99254.28;4855688;29;20040;-71
2023/10/02 11:49:38;;;;;;;8.18;3.53;;;;;;;16.17;59.13;99269.16;4859451;29;20496;-71
2023/10/02 11:52:04;;;;;;;11.60;3.50;;;;;;;16.04;59.54;99261.47;4842478;29;20072;-71
2023/10/02 11:54:35;;;;;;;5.00;2.90;;;;;;;15.91;59.67;99266.41;4860532;29;20052;-72
2023/10/02 11:57:00;;;;;;;5.45;3.33;;;;;;;15.77;60.15;99264.25;4860256;29;20071;-73
2023/10/02 11:59:28;;;;;;;6.53;3.70;;;;;;;15.59;60.54;99293.75;4860556;29;20048;-71
2023/10/02 12:01:56;;;;;;;6.38;3.08;;;;;;;15.42;60.69;99286.47;4843106;29;20802;-71
2023/10/02 12:04:22;;;;;;;6.63;3.70;;;;;;;15.24;61.30;99259.53;4843597;29;20052;-73
2023/10/02 12:06:49;;;;;;;6.65;3.35;;;;;;;15.10;61.99;99303.00;4860770;29;20048;-72
2023/10/02 12:09:17;;;;;;;6.47;2.97;;;;;;;14.99;62.77;99268.28;4840952;29;20524;-72
2023/10/02 12:11:43;;;;;;;5.22;3.05;;;;;;;14.86;63.34;99274.81;4843824;29;20634;-74
2023/10/02 12:14:08;;;;;;;7.60;3.22;;;;;;;14.78;63.53;99288.13;4861034;29;20051;-72
2023/10/02 12:16:33;;;;;;;10.60;3.78;;;;;;;14.70;63.91;99269.19;4859494;29;20044;-73
2023/10/02 12:18:59;;;;;;;6.72;3.58;;;;;;;14.68;64.02;99273.00;4843715;29;20448;-73
2023/10/02 12:21:24;;;;;;;6.35;3.60;;;;;;;14.67;64.21;99277.53;4843512;29;20503;-74
2023/10/02 12:23:50;;;;;;;11.35;4.30;;;;;;;14.70;63.99;99273.72;4857902;29;20056;-73
2023/10/02 12:26:20;;;;;;;7.18;3.60;;;;;;;14.77;64.48;99297.16;4843372;29;20052;-72
2023/10/02 12:28:49;;;;;;;5.47;3.70;;;;;;;14.77;64.05;99273.00;4860391;29;20052;-72
2023/10/02 12:31:15;;;;;;;6.38;2.95;;;;;;;14.86;64.14;99273.97;4860697;29;20044;-73
2023/10/02 12:33:41;;;;;;;6.95;3.97;;;;;;;14.97;64.12;99270.25;4860787;29;20049;-72
2023/10/02 12:36:18;;;;;;;6.70;3.35;;;;;;;15.11;63.52;99267.97;4843884;29;20060;-74
2023/10/02 12:38:44;;;;;;;6.47;3.45;;;;;;;15.08;62.86;99283.50;4858970;29;20501;-72
2023/10/02 12:41:23;;;;;;;3.97;3.25;;;;;;;15.13;62.60;99276.69;4860322;29;20044;-71
2023/10/02 12:43:56;;;;;;;4.50;3.28;;;;;;;15.00;62.44;99275.34;4859732;29;20423;-74
2023/10/02 12:46:27;;;;;;;5.38;3.35;;;;;;;14.96;62.79;99284.69;4846615;29;20055;-74
2023/10/02 12:48:55;;;;;;;8.75;3.55;;;;;;;14.88;63.24;99288.94;4863378;29;20056;-74
2023/10/02 12:51:21;;;;;;;14.75;4.47;;;;;;;14.84;63.48;99309.00;4864683;29;20063;-73
2023/10/02 12:53:46;;;;;;;6.63;3.22;;;;;;;14.82;63.72;99280.59;4864811;29;20055;-75
2023/10/02 12:56:22;;;;;;;7.72;4.03;;;;;;;14.84;64.05;99284.84;4847319;29;20056;-73
2023/10/02 12:58:49;;;;;;;11.30;3.53;;;;;;;14.82;63.78;99284.16;4847738;29;20049;-73
2023/10/02 13:01:18;;;;;;;7.70;3.67;;;;;;;14.86;64.00;99293.59;4863412;29;20055;-73
2023/10/02 13:03:44;;;;;;;5.60;3.63;;;;;;;14.85;63.39;99293.75;4847133;29;20079;-75
2023/10/02 13:06:15;;;;;;;3.20;2.45;;;;;;;14.88;63.21;99282.72;4864918;29;20416;-74
2023/10/02 13:08:45;;;;;;;4.65;2.50;;;;;;;14.95;62.83;99285.66;4863546;29;20052;-75